sensor_id;sensor_type;location;lat;lon;timestamp;pressure;altitude;pressure_sealevel;temperature;humidity
37972;BME280;23794;48.234;8.344;2023-02-20T00:00:56;95386.44;;;5.46;74.05
37972;BME280;23794;48.234;8.344;2023-02-20T00:03:24;95388.81;;;5.48;73.57
37972;BME280;23794;48.234;8.344;2023-02-20T00:05:51;95401.28;;;5.49;73.55
37972;BME280;23794;48.234;8.344;2023-02-20T00:08:17;95392.53;;;5.43;73.60
37972;BME280;23794;48.234;8.344;2023-02-20T00:10:44;95387.09;;;5.43;73.91
37972;BME280;23794;48.234;8.344;2023-02-20T00:13:10;95385.19;;;5.44;73.29
37972;BME280;23794;48.234;8.344;2023-02-20T00:15:37;95386.09;;;5.48;73.99
37972;BME280;23794;48.234;8.344;2023-02-20T00:18:05;95393.13;;;5.49;74.10
37972;BME280;23794;48.234;8.344;2023-02-20T00:20:32;95383.38;;;5.48;74.45
37972;BME280;23794;48.234;8.344;2023-02-20T00:22:59;95386.91;;;5.48;73.97
37972;BME280;23794;48.234;8.344;2023-02-20T00:25:25;95389.28;;;5.50;73.24
37972;BME280;23794;48.234;8.344;2023-02-20T00:27:52;95395.72;;;5.45;72.64
37972;BME280;23794;48.234;8.344;2023-02-20T00:30:23;95385.50;;;5.42;73.30
37972;BME280;23794;48.234;8.344;2023-02-20T00:32:51;95388.16;;;5.51;73.25
37972;BME280;23794;48.234;8.344;2023-02-20T00:35:21;95383.16;;;5.53;73.09
37972;BME280;23794;48.234;8.344;2023-02-20T00:37:49;95379.19;;;5.50;73.82
37972;BME280;23794;48.234;8.344;2023-02-20T00:40:19;95377.38;;;5.42;73.64
37972;BME280;23794;48.234;8.344;2023-02-20T00:42:46;95381.13;;;5.50;73.33
37972;BME280;23794;48.234;8.344;2023-02-20T00:45:14;95376.47;;;5.50;73.07
37972;BME280;23794;48.234;8.344;2023-02-20T00:47:40;95381.13;;;5.50;73.58
37972;BME280;23794;48.234;8.344;2023-02-20T00:50:08;95374.09;;;5.49;73.41
37972;BME280;23794;48.234;8.344;2023-02-20T00:52:34;95380.66;;;5.48;73.40
37972;BME280;23794;48.234;8.344;2023-02-20T00:55:02;95381.91;;;5.38;74.65
37972;BME280;23794;48.234;8.344;2023-02-20T00:57:29;95374.09;;;5.37;73.90
37972;BME280;23794;48.234;8.344;2023-02-20T00:59:55;95381.66;;;5.43;73.10
37972;BME280;23794;48.234;8.344;2023-02-20T01:02:22;95378.72;;;5.36;73.09
37972;BME280;23794;48.234;8.344;2023-02-20T01:04:49;95369.78;;;5.36;73.26
37972;BME280;23794;48.234;8.344;2023-02-20T01:07:15;95378.84;;;5.40;73.31
37972;BME280;23794;48.234;8.344;2023-02-20T01:09:42;95375.00;;;5.41;73.35
37972;BME280;23794;48.234;8.344;2023-02-20T01:12:08;95371.16;;;5.42;73.26
37972;BME280;23794;48.234;8.344;2023-02-20T01:14:35;95371.69;;;5.35;73.59
37972;BME280;23794;48.234;8.344;2023-02-20T01:17:02;95382.03;;;5.29;73.88
37972;BME280;23794;48.234;8.344;2023-02-20T01:19:29;95385.28;;;5.35;73.19
37972;BME280;23794;48.234;8.344;2023-02-20T01:21:56;95378.38;;;5.25;73.26
37972;BME280;23794;48.234;8.344;2023-02-20T01:24:22;95378.38;;;5.13;73.54
37972;BME280;23794;48.234;8.344;2023-02-20T01:26:49;95379.91;;;5.01;74.31
37972;BME280;23794;48.234;8.344;2023-02-20T01:29:16;95380.09;;;4.96;74.50
37972;BME280;23794;48.234;8.344;2023-02-20T01:31:49;95392.19;;;4.86;74.31
37972;BME280;23794;48.234;8.344;2023-02-20T01:34:18;95388.41;;;4.79;74.80
37972;BME280;23794;48.234;8.344;2023-02-20T01:36:48;95387.63;;;4.66;75.32
37972;BME280;23794;48.234;8.344;2023-02-20T01:39:19;95388.72;;;4.65;75.13
37972;BME280;23794;48.234;8.344;2023-02-20T01:41:48;95392.22;;;4.65;75.07
37972;BME280;23794;48.234;8.344;2023-02-20T01:44:24;95382.13;;;4.53;75.53
37972;BME280;23794;48.234;8.344;2023-02-20T01:46:58;95382.22;;;4.45;75.40
37972;BME280;23794;48.234;8.344;2023-02-20T01:49:29;95385.31;;;4.34;75.74
37972;BME280;23794;48.234;8.344;2023-02-20T01:52:18;95386.00;;;4.31;75.91
37972;BME280;23794;48.234;8.344;2023-02-20T01:55:14;95391.72;;;4.30;76.65
37972;BME280;23794;48.234;8.344;2023-02-20T01:57:42;95385.19;;;4.31;77.18
37972;BME280;23794;48.234;8.344;2023-02-20T02:00:13;95387.91;;;4.31;76.85
37972;BME280;23794;48.234;8.344;2023-02-20T02:02:45;95386.03;;;4.44;76.13
37972;BME280;23794;48.234;8.344;2023-02-20T02:05:13;95393.72;;;4.42;76.42
37972;BME280;23794;48.234;8.344;2023-02-20T02:07:42;95380.41;;;4.49;76.43
37972;BME280;23794;48.234;8.344;2023-02-20T02:10:12;95378.50;;;4.49;76.44
37972;BME280;23794;48.234;8.344;2023-02-20T02:12:41;95377.69;;;4.49;76.39
37972;BME280;23794;48.234;8.344;2023-02-20T02:15:14;95376.56;;;4.50;76.20
37972;BME280;23794;48.234;8.344;2023-02-20T02:23:41;95377.28;;;4.59;76.17
37972;BME280;23794;48.234;8.344;2023-02-20T02:26:50;95369.16;;;4.59;75.87
37972;BME280;23794;48.234;8.344;2023-02-20T02:40:25;95364.72;;;4.54;75.26
37972;BME280;23794;48.234;8.344;2023-02-20T02:43:10;95353.38;;;4.52;75.18
37972;BME280;23794;48.234;8.344;2023-02-20T02:45:52;95349.31;;;4.46;75.19
37972;BME280;23794;48.234;8.344;2023-02-20T02:48:36;95353.13;;;4.45;74.83
37972;BME280;23794;48.234;8.344;2023-02-20T02:51:13;95347.19;;;4.31;75.47
37972;BME280;23794;48.234;8.344;2023-02-20T02:53:41;95346.59;;;4.25;75.40
37972;BME280;23794;48.234;8.344;2023-02-20T02:56:09;95341.72;;;4.18;75.62
37972;BME280;23794;48.234;8.344;2023-02-20T02:58:49;95343.06;;;4.12;75.37
37972;BME280;23794;48.234;8.344;2023-02-20T03:01:20;95336.56;;;4.04;75.49
37972;BME280;23794;48.234;8.344;2023-02-20T03:03:49;95334.84;;;4.00;75.55
37972;BME280;23794;48.234;8.344;2023-02-20T03:06:20;95341.13;;;3.91;75.83
37972;BME280;23794;48.234;8.344;2023-02-20T03:09:05;95338.50;;;3.83;75.84
37972;BME280;23794;48.234;8.344;2023-02-20T03:11:32;95333.13;;;3.74;76.03
37972;BME280;23794;48.234;8.344;2023-02-20T03:22:15;95346.50;;;3.19;77.59
37972;BME280;23794;48.234;8.344;2023-02-20T03:24:45;95336.44;;;3.20;76.98
37972;BME280;23794;48.234;8.344;2023-02-20T03:27:42;95337.44;;;3.15;77.04
37972;BME280;23794;48.234;8.344;2023-02-20T03:32:41;95322.97;;;3.11;77.04
37972;BME280;23794;48.234;8.344;2023-02-20T03:35:31;95320.88;;;3.08;76.82
37972;BME280;23794;48.234;8.344;2023-02-20T03:38:20;95316.97;;;2.96;76.95
37972;BME280;23794;48.234;8.344;2023-02-20T03:41:07;95320.47;;;2.97;77.02
37972;BME280;23794;48.234;8.344;2023-02-20T03:43:53;95319.25;;;2.86;77.57
37972;BME280;23794;48.234;8.344;2023-02-20T03:46:22;95314.50;;;2.74;78.12
37972;BME280;23794;48.234;8.344;2023-02-20T03:49:01;95314.03;;;2.72;78.41
37972;BME280;23794;48.234;8.344;2023-02-20T03:51:29;95316.28;;;2.70;78.70
37972;BME280;23794;48.234;8.344;2023-02-20T03:54:28;95306.56;;;2.69;78.33
37972;BME280;23794;48.234;8.344;2023-02-20T03:56:59;95316.75;;;2.63;77.92
37972;BME280;23794;48.234;8.344;2023-02-20T03:59:33;95325.22;;;2.61;78.18
37972;BME280;23794;48.234;8.344;2023-02-20T04:02:06;95322.34;;;2.49;78.02
37972;BME280;23794;48.234;8.344;2023-02-20T04:04:37;95320.59;;;2.44;78.63
37972;BME280;23794;48.234;8.344;2023-02-20T04:07:09;95329.84;;;2.35;78.54
37972;BME280;23794;48.234;8.344;2023-02-20T04:09:40;95322.22;;;2.37;78.95
37972;BME280;23794;48.234;8.344;2023-02-20T04:12:16;95323.34;;;2.36;78.30
37972;BME280;23794;48.234;8.344;2023-02-20T04:14:45;95316.00;;;2.36;78.34
37972;BME280;23794;48.234;8.344;2023-02-20T04:17:16;95314.91;;;2.28;77.82
37972;BME280;23794;48.234;8.344;2023-02-20T04:19:45;95316.53;;;2.21;77.93
37972;BME280;23794;48.234;8.344;2023-02-20T04:22:18;95326.06;;;2.18;78.58
37972;BME280;23794;48.234;8.344;2023-02-20T04:24:57;95328.63;;;2.06;79.08
37972;BME280;23794;48.234;8.344;2023-02-20T04:27:28;95322.41;;;2.14;78.20
37972;BME280;23794;48.234;8.344;2023-02-20T04:29:58;95327.19;;;2.17;78.32
37972;BME280;23794;48.234;8.344;2023-02-20T04:32:24;95337.34;;;2.03;78.68
37972;BME280;23794;48.234;8.344;2023-02-20T04:34:52;95337.22;;;2.08;78.61
37972;BME280;23794;48.234;8.344;2023-02-20T04:37:19;95332.09;;;2.06;79.02
37972;BME280;23794;48.234;8.344;2023-02-20T04:39:49;95331.16;;;2.11;78.48
37972;BME280;23794;48.234;8.344;2023-02-20T04:42:16;95321.47;;;2.01;78.73
37972;BME280;23794;48.234;8.344;2023-02-20T04:44:43;95323.06;;;1.93;78.82
37972;BME280;23794;48.234;8.344;2023-02-20T04:47:16;95325.75;;;1.93;79.52
37972;BME280;23794;48.234;8.344;2023-02-20T04:49:43;95324.19;;;1.92;79.40
37972;BME280;23794;48.234;8.344;2023-02-20T04:52:17;95325.94;;;1.97;79.12
37972;BME280;23794;48.234;8.344;2023-02-20T04:54:44;95318.44;;;1.85;79.09
37972;BME280;23794;48.234;8.344;2023-02-20T04:57:13;95322.25;;;1.75;79.61
37972;BME280;23794;48.234;8.344;2023-02-20T04:59:40;95317.16;;;1.65;79.36
37972;BME280;23794;48.234;8.344;2023-02-20T05:02:08;95312.25;;;1.67;79.50
37972;BME280;23794;48.234;8.344;2023-02-20T05:04:36;95318.28;;;1.64;79.45
37972;BME280;23794;48.234;8.344;2023-02-20T05:07:02;95320.47;;;1.62;79.68
37972;BME280;23794;48.234;8.344;2023-02-20T05:09:29;95312.53;;;1.65;79.46
37972;BME280;23794;48.234;8.344;2023-02-20T05:11:57;95309.50;;;1.58;79.41
37972;BME280;23794;48.234;8.344;2023-02-20T05:14:23;95316.66;;;1.45;79.85
37972;BME280;23794;48.234;8.344;2023-02-20T05:16:50;95318.72;;;1.40;79.78
37972;BME280;23794;48.234;8.344;2023-02-20T05:19:17;95296.19;;;1.44;80.15
37972;BME280;23794;48.234;8.344;2023-02-20T05:21:44;95308.22;;;1.38;79.79
37972;BME280;23794;48.234;8.344;2023-02-20T05:24:30;95309.34;;;1.37;79.83
37972;BME280;23794;48.234;8.344;2023-02-20T05:26:58;95310.13;;;1.37;79.81
37972;BME280;23794;48.234;8.344;2023-02-20T05:29:24;95308.22;;;1.38;79.81
37972;BME280;23794;48.234;8.344;2023-02-20T05:31:51;95310.56;;;1.31;79.79
37972;BME280;23794;48.234;8.344;2023-02-20T05:34:18;95302.66;;;1.34;80.10
37972;BME280;23794;48.234;8.344;2023-02-20T05:36:46;95309.63;;;1.27;80.37
37972;BME280;23794;48.234;8.344;2023-02-20T05:39:14;95306.31;;;1.30;79.59
37972;BME280;23794;48.234;8.344;2023-02-20T05:41:41;95305.81;;;1.19;79.68
37972;BME280;23794;48.234;8.344;2023-02-20T05:44:07;95308.03;;;1.26;79.76
37972;BME280;23794;48.234;8.344;2023-02-20T05:46:39;95299.31;;;1.29;79.87
37972;BME280;23794;48.234;8.344;2023-02-20T05:49:07;95299.28;;;1.20;80.11
37972;BME280;23794;48.234;8.344;2023-02-20T05:51:34;95308.47;;;1.10;80.67
37972;BME280;23794;48.234;8.344;2023-02-20T05:54:02;95313.38;;;1.08;80.23
37972;BME280;23794;48.234;8.344;2023-02-20T05:56:29;95304.34;;;1.13;80.10
37972;BME280;23794;48.234;8.344;2023-02-20T05:58:58;95310.56;;;1.13;79.93
37972;BME280;23794;48.234;8.344;2023-02-20T06:01:29;95311.97;;;1.11;79.83
37972;BME280;23794;48.234;8.344;2023-02-20T06:03:57;95309.56;;;1.00;80.04
37972;BME280;23794;48.234;8.344;2023-02-20T06:08:59;95308.44;;;1.01;80.15
37972;BME280;23794;48.234;8.344;2023-02-20T06:11:26;95306.84;;;1.00;80.09
37972;BME280;23794;48.234;8.344;2023-02-20T06:13:53;95304.81;;;1.06;79.93
37972;BME280;23794;48.234;8.344;2023-02-20T06:16:27;95304.06;;;1.14;79.90
37972;BME280;23794;48.234;8.344;2023-02-20T06:18:54;95303.06;;;1.10;79.79
37972;BME280;23794;48.234;8.344;2023-02-20T06:21:22;95297.84;;;1.14;79.52
37972;BME280;23794;48.234;8.344;2023-02-20T06:23:51;95301.47;;;1.00;80.31
37972;BME280;23794;48.234;8.344;2023-02-20T06:26:20;95299.25;;;1.02;80.06
37972;BME280;23794;48.234;8.344;2023-02-20T06:28:47;95294.31;;;1.04;80.16
37972;BME280;23794;48.234;8.344;2023-02-20T06:31:23;95288.75;;;1.01;80.45
37972;BME280;23794;48.234;8.344;2023-02-20T06:33:51;95297.16;;;0.90;80.80
37972;BME280;23794;48.234;8.344;2023-02-20T06:36:24;95298.75;;;0.92;80.57
37972;BME280;23794;48.234;8.344;2023-02-20T06:38:51;95307.94;;;0.90;80.80
37972;BME280;23794;48.234;8.344;2023-02-20T06:41:18;95308.59;;;0.96;80.42
37972;BME280;23794;48.234;8.344;2023-02-20T06:43:45;95311.47;;;1.00;80.60
37972;BME280;23794;48.234;8.344;2023-02-20T06:46:13;95314.28;;;0.95;80.69
37972;BME280;23794;48.234;8.344;2023-02-20T06:48:45;95320.50;;;1.04;80.30
37972;BME280;23794;48.234;8.344;2023-02-20T06:51:12;95313.84;;;1.01;80.51
37972;BME280;23794;48.234;8.344;2023-02-20T06:53:41;95305.59;;;1.06;80.10
37972;BME280;23794;48.234;8.344;2023-02-20T06:56:09;95313.19;;;1.04;80.43
37972;BME280;23794;48.234;8.344;2023-02-20T06:58:39;95309.72;;;1.04;80.23
37972;BME280;23794;48.234;8.344;2023-02-20T07:01:07;95311.00;;;1.15;79.66
37972;BME280;23794;48.234;8.344;2023-02-20T07:03:33;95313.44;;;1.26;79.88
37972;BME280;23794;48.234;8.344;2023-02-20T07:06:02;95313.94;;;1.36;80.00
37972;BME280;23794;48.234;8.344;2023-02-20T07:08:29;95316.50;;;1.42;80.29
37972;BME280;23794;48.234;8.344;2023-02-20T07:10:55;95317.13;;;1.47;79.95
37972;BME280;23794;48.234;8.344;2023-02-20T07:13:24;95323.50;;;1.51;80.39
37972;BME280;23794;48.234;8.344;2023-02-20T07:15:51;95315.72;;;1.59;80.18
37972;BME280;23794;48.234;8.344;2023-02-20T07:18:19;95320.31;;;1.58;79.99
37972;BME280;23794;48.234;8.344;2023-02-20T07:20:58;95313.66;;;1.47;80.15
37972;BME280;23794;48.234;8.344;2023-02-20T07:23:25;95319.53;;;1.49;79.84
37972;BME280;23794;48.234;8.344;2023-02-20T07:25:51;95324.13;;;1.57;78.95
37972;BME280;23794;48.234;8.344;2023-02-20T07:28:18;95319.06;;;1.56;79.53
37972;BME280;23794;48.234;8.344;2023-02-20T07:30:46;95320.47;;;1.62;79.70
37972;BME280;23794;48.234;8.344;2023-02-20T07:33:15;95329.56;;;1.75;79.28
37972;BME280;23794;48.234;8.344;2023-02-20T07:35:43;95323.69;;;1.81;78.84
37972;BME280;23794;48.234;8.344;2023-02-20T07:38:09;95325.91;;;1.88;78.93
37972;BME280;23794;48.234;8.344;2023-02-20T07:40:36;95332.59;;;1.91;79.28
37972;BME280;23794;48.234;8.344;2023-02-20T07:43:05;95335.13;;;1.96;79.51
37972;BME280;23794;48.234;8.344;2023-02-20T07:45:36;95332.09;;;2.06;79.19
37972;BME280;23794;48.234;8.344;2023-02-20T07:48:04;95330.50;;;2.23;78.34
37972;BME280;23794;48.234;8.344;2023-02-20T07:50:31;95328.13;;;2.21;78.60
37972;BME280;23794;48.234;8.344;2023-02-20T07:52:58;95317.28;;;2.30;78.34
37972;BME280;23794;48.234;8.344;2023-02-20T07:55:24;95318.91;;;2.40;77.98
37972;BME280;23794;48.234;8.344;2023-02-20T07:57:51;95318.38;;;2.46;77.88
37972;BME280;23794;48.234;8.344;2023-02-20T08:00:20;95322.03;;;2.59;77.73
37972;BME280;23794;48.234;8.344;2023-02-20T08:02:47;95321.84;;;2.73;77.39
37972;BME280;23794;48.234;8.344;2023-02-20T08:05:13;95312.41;;;2.79;77.39
37972;BME280;23794;48.234;8.344;2023-02-20T08:07:45;95321.59;;;2.96;77.67
37972;BME280;23794;48.234;8.344;2023-02-20T08:10:12;95316.56;;;3.16;77.02
37972;BME280;23794;48.234;8.344;2023-02-20T08:12:39;95317.19;;;3.21;77.28
37972;BME280;23794;48.234;8.344;2023-02-20T08:15:06;95315.53;;;3.29;76.47
37972;BME280;23794;48.234;8.344;2023-02-20T08:17:33;95305.25;;;3.43;76.43
37972;BME280;23794;48.234;8.344;2023-02-20T08:20:12;95298.34;;;3.55;76.09
37972;BME280;23794;48.234;8.344;2023-02-20T08:22:39;95299.81;;;3.52;75.58
37972;BME280;23794;48.234;8.344;2023-02-20T08:25:08;95297.38;;;3.59;75.78
37972;BME280;23794;48.234;8.344;2023-02-20T08:27:35;95295.19;;;3.74;74.92
37972;BME280;23794;48.234;8.344;2023-02-20T08:30:05;95298.78;;;3.87;74.53
37972;BME280;23794;48.234;8.344;2023-02-20T08:32:32;95293.75;;;3.98;73.65
37972;BME280;23794;48.234;8.344;2023-02-20T08:34:59;95291.53;;;4.12;73.13
37972;BME280;23794;48.234;8.344;2023-02-20T08:37:25;95286.75;;;4.30;72.53
37972;BME280;23794;48.234;8.344;2023-02-20T08:39:52;95294.69;;;4.48;73.18
37972;BME280;23794;48.234;8.344;2023-02-20T08:42:20;95295.88;;;4.59;73.10
37972;BME280;23794;48.234;8.344;2023-02-20T08:44:46;95287.75;;;4.71;72.92
37972;BME280;23794;48.234;8.344;2023-02-20T08:47:13;95288.56;;;4.84;72.33
37972;BME280;23794;48.234;8.344;2023-02-20T08:49:39;95289.97;;;5.03;72.22
37972;BME280;23794;48.234;8.344;2023-02-20T08:52:06;95281.94;;;5.19;71.69
37972;BME280;23794;48.234;8.344;2023-02-20T08:54:34;95280.59;;;5.38;71.32
37972;BME280;23794;48.234;8.344;2023-02-20T08:57:00;95279.66;;;5.58;71.20
37972;BME280;23794;48.234;8.344;2023-02-20T08:59:30;95274.41;;;5.65;69.56
37972;BME280;23794;48.234;8.344;2023-02-20T09:01:57;95274.38;;;5.90;69.71
37972;BME280;23794;48.234;8.344;2023-02-20T09:04:23;95271.81;;;6.10;69.07
37972;BME280;23794;48.234;8.344;2023-02-20T09:06:50;95273.09;;;6.28;68.42
37972;BME280;23794;48.234;8.344;2023-02-20T09:09:16;95267.78;;;6.48;67.85
37972;BME280;23794;48.234;8.344;2023-02-20T09:11:43;95267.19;;;6.71;67.11
37972;BME280;23794;48.234;8.344;2023-02-20T09:14:13;95265.38;;;6.91;63.19
37972;BME280;23794;48.234;8.344;2023-02-20T09:16:40;95270.00;;;7.22;64.44
37972;BME280;23794;48.234;8.344;2023-02-20T09:19:10;95260.03;;;7.46;62.34
37972;BME280;23794;48.234;8.344;2023-02-20T09:21:39;95256.81;;;7.56;62.97
37972;BME280;23794;48.234;8.344;2023-02-20T09:24:05;95258.81;;;7.60;61.89
37972;BME280;23794;48.234;8.344;2023-02-20T09:26:32;95256.59;;;7.65;62.52
37972;BME280;23794;48.234;8.344;2023-02-20T09:28:58;95250.69;;;7.63;61.62
37972;BME280;23794;48.234;8.344;2023-02-20T09:31:25;95248.88;;;7.87;61.00
37972;BME280;23794;48.234;8.344;2023-02-20T09:33:52;95250.38;;;7.84;57.69
37972;BME280;23794;48.234;8.344;2023-02-20T09:36:18;95244.41;;;7.79;59.59
37972;BME280;23794;48.234;8.344;2023-02-20T09:38:45;95249.00;;;7.75;58.48
37972;BME280;23794;48.234;8.344;2023-02-20T09:44:14;95246.06;;;8.23;57.75
37972;BME280;23794;48.234;8.344;2023-02-20T09:46:45;95239.00;;;8.41;56.38
37972;BME280;23794;48.234;8.344;2023-02-20T09:49:19;95242.25;;;8.70;56.46
37972;BME280;23794;48.234;8.344;2023-02-20T09:52:00;95238.63;;;8.86;54.87
37972;BME280;23794;48.234;8.344;2023-02-20T09:54:50;95236.50;;;8.75;53.79
37972;BME280;23794;48.234;8.344;2023-02-20T09:57:25;95244.09;;;8.86;56.34
37972;BME280;23794;48.234;8.344;2023-02-20T09:59:54;95243.91;;;8.98;55.48
37972;BME280;23794;48.234;8.344;2023-02-20T10:02:30;95240.31;;;8.94;56.11
37972;BME280;23794;48.234;8.344;2023-02-20T10:05:02;95236.47;;;8.98;55.80
37972;BME280;23794;48.234;8.344;2023-02-20T10:07:34;95235.75;;;9.02;54.03
37972;BME280;23794;48.234;8.344;2023-02-20T10:10:17;95233.81;;;9.02;53.96
37972;BME280;23794;48.234;8.344;2023-02-20T10:21:19;95225.66;;;9.56;54.68
37972;BME280;23794;48.234;8.344;2023-02-20T10:23:51;95235.22;;;9.69;53.11
37972;BME280;23794;48.234;8.344;2023-02-20T10:26:35;95222.84;;;9.79;51.24
37972;BME280;23794;48.234;8.344;2023-02-20T10:29:21;95226.13;;;9.92;51.11
37972;BME280;23794;48.234;8.344;2023-02-20T10:31:52;95232.50;;;10.00;50.91
37972;BME280;23794;48.234;8.344;2023-02-20T10:34:27;95231.69;;;9.99;49.45
37972;BME280;23794;48.234;8.344;2023-02-20T10:37:01;95229.50;;;10.12;50.43
37972;BME280;23794;48.234;8.344;2023-02-20T10:39:33;95231.94;;;10.17;50.47
37972;BME280;23794;48.234;8.344;2023-02-20T10:42:10;95230.03;;;10.25;49.76
37972;BME280;23794;48.234;8.344;2023-02-20T10:44:56;95222.53;;;10.18;48.82
37972;BME280;23794;48.234;8.344;2023-02-20T10:47:36;95222.28;;;10.31;49.78
37972;BME280;23794;48.234;8.344;2023-02-20T10:50:11;95224.88;;;10.54;49.50
37972;BME280;23794;48.234;8.344;2023-02-20T10:52:46;95215.97;;;10.64;49.45
37972;BME280;23794;48.234;8.344;2023-02-20T10:55:20;95216.84;;;10.76;48.03
37972;BME280;23794;48.234;8.344;2023-02-20T11:00:53;95210.25;;;11.25;47.61
37972;BME280;23794;48.234;8.344;2023-02-20T11:07:20;95209.13;;;11.33;45.15
37972;BME280;23794;48.234;8.344;2023-02-20T11:30:15;95171.81;;;11.92;45.05
37972;BME280;23794;48.234;8.344;2023-02-20T11:32:48;95170.31;;;12.05;43.71
37972;BME280;23794;48.234;8.344;2023-02-20T11:40:23;95156.28;;;12.39;43.02
37972;BME280;23794;48.234;8.344;2023-02-20T11:42:52;95146.53;;;12.71;43.80
37972;BME280;23794;48.234;8.344;2023-02-20T11:50:49;95141.41;;;13.02;43.27
37972;BME280;23794;48.234;8.344;2023-02-20T11:53:18;95138.66;;;13.23;41.36
37972;BME280;23794;48.234;8.344;2023-02-20T11:55:47;95124.09;;;13.26;40.95
37972;BME280;23794;48.234;8.344;2023-02-20T11:58:27;95129.56;;;13.30;41.21
37972;BME280;23794;48.234;8.344;2023-02-20T12:00:55;95122.88;;;13.35;39.35
37972;BME280;23794;48.234;8.344;2023-02-20T12:03:32;95123.28;;;13.30;39.13
37972;BME280;23794;48.234;8.344;2023-02-20T12:09:02;95117.69;;;13.62;39.37
37972;BME280;23794;48.234;8.344;2023-02-20T12:11:29;95113.38;;;13.68;39.22
37972;BME280;23794;48.234;8.344;2023-02-20T12:13:57;95110.88;;;13.99;40.03
37972;BME280;23794;48.234;8.344;2023-02-20T12:19:27;95104.66;;;13.92;37.80
37972;BME280;23794;48.234;8.344;2023-02-20T12:27:45;95086.31;;;14.30;36.30
37972;BME280;23794;48.234;8.344;2023-02-20T12:30:40;95083.88;;;14.40;36.39
37972;BME280;23794;48.234;8.344;2023-02-20T12:33:36;95066.69;;;14.21;33.76
37972;BME280;23794;48.234;8.344;2023-02-20T12:36:46;95064.94;;;14.45;35.85
37972;BME280;23794;48.234;8.344;2023-02-20T12:42:14;95042.03;;;14.56;33.65
37972;BME280;23794;48.234;8.344;2023-02-20T12:45:11;95043.56;;;14.60;33.80
37972;BME280;23794;48.234;8.344;2023-02-20T12:47:43;95043.16;;;14.62;34.39
37972;BME280;23794;48.234;8.344;2023-02-20T12:53:50;95034.06;;;14.65;32.97
37972;BME280;23794;48.234;8.344;2023-02-20T12:59:34;95041.88;;;14.74;33.36
37972;BME280;23794;48.234;8.344;2023-02-20T13:04:54;95042.66;;;14.74;33.76
37972;BME280;23794;48.234;8.344;2023-02-20T13:10:15;95014.66;;;15.18;33.63
37972;BME280;23794;48.234;8.344;2023-02-20T13:12:42;95019.31;;;15.24;32.61
37972;BME280;23794;48.234;8.344;2023-02-20T13:18:06;95024.22;;;15.09;32.12
37972;BME280;23794;48.234;8.344;2023-02-20T13:20:48;95029.69;;;15.13;31.35
37972;BME280;23794;48.234;8.344;2023-02-20T13:25:49;95018.75;;;15.40;31.45
37972;BME280;23794;48.234;8.344;2023-02-20T13:28:38;95023.16;;;15.34;30.85
37972;BME280;23794;48.234;8.344;2023-02-20T13:33:38;95013.69;;;15.35;31.89
37972;BME280;23794;48.234;8.344;2023-02-20T13:36:07;95007.63;;;15.47;30.12
37972;BME280;23794;48.234;8.344;2023-02-20T13:38:40;94995.78;;;15.47;31.07
37972;BME280;23794;48.234;8.344;2023-02-20T13:41:08;94991.97;;;15.37;31.66
37972;BME280;23794;48.234;8.344;2023-02-20T13:43:36;94985.72;;;15.33;32.30
37972;BME280;23794;48.234;8.344;2023-02-20T13:54:02;94990.47;;;14.94;32.51
37972;BME280;23794;48.234;8.344;2023-02-20T13:56:48;94986.47;;;14.99;32.97
37972;BME280;23794;48.234;8.344;2023-02-20T13:59:18;94979.44;;;14.94;35.30
37972;BME280;23794;48.234;8.344;2023-02-20T14:02:12;94982.44;;;15.07;34.09
37972;BME280;23794;48.234;8.344;2023-02-20T14:05:01;94968.06;;;15.27;34.59
37972;BME280;23794;48.234;8.344;2023-02-20T14:07:32;94963.47;;;15.13;34.02
37972;BME280;23794;48.234;8.344;2023-02-20T14:10:02;94970.47;;;15.21;35.50
37972;BME280;23794;48.234;8.344;2023-02-20T14:12:30;94971.63;;;15.24;35.35
37972;BME280;23794;48.234;8.344;2023-02-20T14:14:58;94963.38;;;15.20;34.57
37972;BME280;23794;48.234;8.344;2023-02-20T14:17:28;94953.16;;;14.86;35.26
37972;BME280;23794;48.234;8.344;2023-02-20T14:19:57;94954.34;;;14.81;36.09
37972;BME280;23794;48.234;8.344;2023-02-20T14:22:39;94959.84;;;14.85;36.84
37972;BME280;23794;48.234;8.344;2023-02-20T14:25:25;94951.97;;;14.80;36.23
37972;BME280;23794;48.234;8.344;2023-02-20T14:28:12;94945.91;;;14.58;36.04
37972;BME280;23794;48.234;8.344;2023-02-20T14:30:40;94950.59;;;14.61;36.42
37972;BME280;23794;48.234;8.344;2023-02-20T14:36:17;94948.22;;;14.63;37.28
37972;BME280;23794;48.234;8.344;2023-02-20T14:41:26;94949.75;;;14.26;37.93
37972;BME280;23794;48.234;8.344;2023-02-20T14:44:02;94943.72;;;13.89;37.79
37972;BME280;23794;48.234;8.344;2023-02-20T14:46:32;94937.16;;;13.72;36.25
37972;BME280;23794;48.234;8.344;2023-02-20T14:49:13;94937.59;;;13.67;37.23
37972;BME280;23794;48.234;8.344;2023-02-20T14:51:41;94945.13;;;13.52;37.66
37972;BME280;23794;48.234;8.344;2023-02-20T14:56:38;94937.44;;;13.21;38.46
37972;BME280;23794;48.234;8.344;2023-02-20T15:01:57;94934.41;;;12.94;39.61
37972;BME280;23794;48.234;8.344;2023-02-20T15:04:26;94930.94;;;12.72;41.77
37972;BME280;23794;48.234;8.344;2023-02-20T15:07:01;94933.75;;;12.46;41.46
37972;BME280;23794;48.234;8.344;2023-02-20T15:09:39;94932.97;;;12.46;41.15
37972;BME280;23794;48.234;8.344;2023-02-20T15:12:39;94926.69;;;12.24;42.18
37972;BME280;23794;48.234;8.344;2023-02-20T15:17:37;94932.19;;;11.88;42.92
37972;BME280;23794;48.234;8.344;2023-02-20T15:20:49;94921.59;;;11.64;43.23
37972;BME280;23794;48.234;8.344;2023-02-20T15:25:42;94926.66;;;11.37;44.24
37972;BME280;23794;48.234;8.344;2023-02-20T15:28:24;94930.50;;;11.14;43.96
37972;BME280;23794;48.234;8.344;2023-02-20T15:33:41;94926.44;;;10.90;45.69
37972;BME280;23794;48.234;8.344;2023-02-20T15:36:12;94930.75;;;10.87;43.11
37972;BME280;23794;48.234;8.344;2023-02-20T15:38:40;94927.22;;;10.80;45.59
37972;BME280;23794;48.234;8.344;2023-02-20T15:41:10;94924.72;;;10.53;46.59
37972;BME280;23794;48.234;8.344;2023-02-20T15:43:37;94921.09;;;10.34;46.59
37972;BME280;23794;48.234;8.344;2023-02-20T15:46:17;94924.13;;;10.22;47.05
37972;BME280;23794;48.234;8.344;2023-02-20T15:48:45;94922.91;;;10.16;47.43
37972;BME280;23794;48.234;8.344;2023-02-20T15:51:18;94924.41;;;10.06;48.46